sensor_id;sensor_type;location;lat;lon;timestamp;P1;durP1;ratioP1;P2;durP2;ratioP2
53925;SDS011;39836;52.754;6.866;2023-03-03T00:00:38;57.22;;;27.45;;
53925;SDS011;39836;52.754;6.866;2023-03-03T00:03:05;51.63;;;26.80;;
53925;SDS011;39836;52.754;6.866;2023-03-03T00:05:33;54.85;;;26.08;;
53925;SDS011;39836;52.754;6.866;2023-03-03T00:08:00;52.45;;;27.63;;
53925;SDS011;39836;52.754;6.866;2023-03-03T00:10:26;53.00;;;26.17;;
53925;SDS011;39836;52.754;6.866;2023-03-03T00:12:52;54.50;;;26.92;;
53925;SDS011;39836;52.754;6.866;2023-03-03T00:15:19;51.88;;;26.73;;
53925;SDS011;39836;52.754;6.866;2023-03-03T00:17:47;50.08;;;25.70;;
53925;SDS011;39836;52.754;6.866;2023-03-03T00:20:33;46.33;;;24.38;;
53925;SDS011;39836;52.754;6.866;2023-03-03T00:25:45;45.25;;;24.13;;
53925;SDS011;39836;52.754;6.866;2023-03-03T00:28:18;47.95;;;23.13;;
53925;SDS011;39836;52.754;6.866;2023-03-03T00:30:55;43.78;;;22.60;;
53925;SDS011;39836;52.754;6.866;2023-03-03T00:33:28;43.70;;;23.85;;
53925;SDS011;39836;52.754;6.866;2023-03-03T00:38:58;43.15;;;23.08;;
53925;SDS011;39836;52.754;6.866;2023-03-03T00:41:39;36.85;;;19.75;;
53925;SDS011;39836;52.754;6.866;2023-03-03T00:46:50;40.08;;;21.20;;
53925;SDS011;39836;52.754;6.866;2023-03-03T00:49:20;45.28;;;22.65;;
53925;SDS011;39836;52.754;6.866;2023-03-03T00:51:51;40.30;;;21.98;;
53925;SDS011;39836;52.754;6.866;2023-03-03T00:54:17;41.80;;;22.38;;
53925;SDS011;39836;52.754;6.866;2023-03-03T00:56:43;41.22;;;22.15;;
53925;SDS011;39836;52.754;6.866;2023-03-03T00:59:09;37.33;;;20.63;;
53925;SDS011;39836;52.754;6.866;2023-03-03T01:01:35;37.75;;;21.98;;
53925;SDS011;39836;52.754;6.866;2023-03-03T01:04:00;41.42;;;22.42;;
53925;SDS011;39836;52.754;6.866;2023-03-03T01:06:26;43.20;;;23.42;;
53925;SDS011;39836;52.754;6.866;2023-03-03T01:08:52;43.58;;;22.25;;
53925;SDS011;39836;52.754;6.866;2023-03-03T01:11:25;52.20;;;25.05;;
53925;SDS011;39836;52.754;6.866;2023-03-03T01:13:52;37.10;;;18.58;;
53925;SDS011;39836;52.754;6.866;2023-03-03T01:16:18;43.53;;;24.00;;
53925;SDS011;39836;52.754;6.866;2023-03-03T01:18:44;45.65;;;25.45;;
53925;SDS011;39836;52.754;6.866;2023-03-03T01:21:10;46.88;;;25.02;;
53925;SDS011;39836;52.754;6.866;2023-03-03T01:23:36;43.20;;;23.63;;
53925;SDS011;39836;52.754;6.866;2023-03-03T01:26:03;42.30;;;22.80;;
53925;SDS011;39836;52.754;6.866;2023-03-03T01:28:28;44.03;;;23.77;;
53925;SDS011;39836;52.754;6.866;2023-03-03T01:30:58;50.53;;;25.42;;
53925;SDS011;39836;52.754;6.866;2023-03-03T01:33:28;49.50;;;25.67;;
53925;SDS011;39836;52.754;6.866;2023-03-03T01:35:55;47.05;;;25.05;;
53925;SDS011;39836;52.754;6.866;2023-03-03T01:38:21;48.35;;;26.35;;
53925;SDS011;39836;52.754;6.866;2023-03-03T01:40:54;49.35;;;26.42;;
53925;SDS011;39836;52.754;6.866;2023-03-03T01:43:21;50.00;;;25.35;;
53925;SDS011;39836;52.754;6.866;2023-03-03T01:48:15;53.53;;;24.05;;
53925;SDS011;39836;52.754;6.866;2023-03-03T01:53:18;51.60;;;24.40;;
53925;SDS011;39836;52.754;6.866;2023-03-03T01:56:00;54.95;;;26.45;;
53925;SDS011;39836;52.754;6.866;2023-03-03T01:58:29;58.47;;;26.50;;
53925;SDS011;39836;52.754;6.866;2023-03-03T02:01:01;51.47;;;25.17;;
53925;SDS011;39836;52.754;6.866;2023-03-03T02:03:29;49.55;;;23.90;;
53925;SDS011;39836;52.754;6.866;2023-03-03T02:05:57;49.20;;;24.60;;
53925;SDS011;39836;52.754;6.866;2023-03-03T02:08:27;45.55;;;22.38;;
53925;SDS011;39836;52.754;6.866;2023-03-03T02:10:59;41.20;;;21.27;;
53925;SDS011;39836;52.754;6.866;2023-03-03T02:13:26;42.30;;;22.75;;
53925;SDS011;39836;52.754;6.866;2023-03-03T02:15:52;37.47;;;19.70;;
53925;SDS011;39836;52.754;6.866;2023-03-03T02:18:18;40.63;;;20.33;;
53925;SDS011;39836;52.754;6.866;2023-03-03T02:21:00;41.00;;;20.98;;
53925;SDS011;39836;52.754;6.866;2023-03-03T02:26:44;47.95;;;22.35;;
53925;SDS011;39836;52.754;6.866;2023-03-03T02:29:10;41.38;;;21.50;;
53925;SDS011;39836;52.754;6.866;2023-03-03T02:31:36;46.13;;;23.27;;
53925;SDS011;39836;52.754;6.866;2023-03-03T02:34:02;55.83;;;21.95;;
53925;SDS011;39836;52.754;6.866;2023-03-03T02:39:04;67.90;;;25.70;;
53925;SDS011;39836;52.754;6.866;2023-03-03T02:44:47;63.50;;;24.30;;
53925;SDS011;39836;52.754;6.866;2023-03-03T02:47:14;69.95;;;26.15;;
53925;SDS011;39836;52.754;6.866;2023-03-03T02:49:40;65.60;;;23.80;;
53925;SDS011;39836;52.754;6.866;2023-03-03T02:52:08;90.88;;;23.48;;
53925;SDS011;39836;52.754;6.866;2023-03-03T02:54:35;74.93;;;25.13;;
53925;SDS011;39836;52.754;6.866;2023-03-03T02:57:02;85.28;;;23.27;;
53925;SDS011;39836;52.754;6.866;2023-03-03T02:59:28;79.32;;;24.58;;
53925;SDS011;39836;52.754;6.866;2023-03-03T03:01:54;83.35;;;23.90;;
53925;SDS011;39836;52.754;6.866;2023-03-03T03:04:21;78.68;;;20.88;;
53925;SDS011;39836;52.754;6.866;2023-03-03T03:06:49;81.57;;;24.67;;
53925;SDS011;39836;52.754;6.866;2023-03-03T03:09:16;93.80;;;22.13;;
53925;SDS011;39836;52.754;6.866;2023-03-03T03:11:43;63.75;;;23.00;;
53925;SDS011;39836;52.754;6.866;2023-03-03T03:14:09;97.82;;;23.88;;
53925;SDS011;39836;52.754;6.866;2023-03-03T03:16:36;77.00;;;22.88;;
53925;SDS011;39836;52.754;6.866;2023-03-03T03:19:02;76.10;;;23.50;;
53925;SDS011;39836;52.754;6.866;2023-03-03T03:21:29;77.93;;;21.35;;
53925;SDS011;39836;52.754;6.866;2023-03-03T03:23:55;82.68;;;18.48;;
53925;SDS011;39836;52.754;6.866;2023-03-03T03:26:21;60.35;;;21.10;;
53925;SDS011;39836;52.754;6.866;2023-03-03T03:28:47;69.60;;;16.95;;
53925;SDS011;39836;52.754;6.866;2023-03-03T03:31:14;49.92;;;17.83;;
53925;SDS011;39836;52.754;6.866;2023-03-03T03:33:40;44.25;;;15.75;;
53925;SDS011;39836;52.754;6.866;2023-03-03T03:36:06;47.50;;;12.23;;
53925;SDS011;39836;52.754;6.866;2023-03-03T03:38:33;53.88;;;14.07;;
53925;SDS011;39836;52.754;6.866;2023-03-03T03:41:01;35.42;;;12.73;;
53925;SDS011;39836;52.754;6.866;2023-03-03T03:43:27;35.30;;;14.40;;
53925;SDS011;39836;52.754;6.866;2023-03-03T03:45:53;49.33;;;15.98;;
53925;SDS011;39836;52.754;6.866;2023-03-03T03:48:19;57.50;;;15.38;;
53925;SDS011;39836;52.754;6.866;2023-03-03T03:50:48;41.85;;;15.70;;
53925;SDS011;39836;52.754;6.866;2023-03-03T03:53:14;53.42;;;15.50;;
53925;SDS011;39836;52.754;6.866;2023-03-03T03:55:41;66.90;;;15.95;;
53925;SDS011;39836;52.754;6.866;2023-03-03T03:58:07;44.67;;;16.52;;
53925;SDS011;39836;52.754;6.866;2023-03-03T04:00:38;33.92;;;15.15;;
53925;SDS011;39836;52.754;6.866;2023-03-03T04:03:05;33.28;;;13.90;;
53925;SDS011;39836;52.754;6.866;2023-03-03T04:05:31;32.00;;;14.77;;
53925;SDS011;39836;52.754;6.866;2023-03-03T04:07:56;39.55;;;14.38;;
53925;SDS011;39836;52.754;6.866;2023-03-03T04:10:22;36.75;;;14.52;;
53925;SDS011;39836;52.754;6.866;2023-03-03T04:12:48;36.88;;;14.43;;
53925;SDS011;39836;52.754;6.866;2023-03-03T04:15:13;35.65;;;14.57;;
53925;SDS011;39836;52.754;6.866;2023-03-03T04:17:39;57.42;;;16.83;;
53925;SDS011;39836;52.754;6.866;2023-03-03T04:20:06;40.25;;;15.63;;
53925;SDS011;39836;52.754;6.866;2023-03-03T04:22:33;76.10;;;16.45;;
53925;SDS011;39836;52.754;6.866;2023-03-03T04:25:00;40.72;;;15.95;;
53925;SDS011;39836;52.754;6.866;2023-03-03T04:27:34;50.17;;;15.80;;
53925;SDS011;39836;52.754;6.866;2023-03-03T04:30:01;43.50;;;15.63;;
53925;SDS011;39836;52.754;6.866;2023-03-03T04:32:29;48.53;;;16.25;;
53925;SDS011;39836;52.754;6.866;2023-03-03T04:34:55;51.03;;;15.40;;
53925;SDS011;39836;52.754;6.866;2023-03-03T04:37:21;108.78;;;17.25;;
53925;SDS011;39836;52.754;6.866;2023-03-03T04:39:46;99.25;;;16.70;;
53925;SDS011;39836;52.754;6.866;2023-03-03T04:42:12;77.72;;;16.55;;
53925;SDS011;39836;52.754;6.866;2023-03-03T04:44:38;78.63;;;17.75;;
53925;SDS011;39836;52.754;6.866;2023-03-03T04:47:04;74.60;;;16.10;;
53925;SDS011;39836;52.754;6.866;2023-03-03T04:49:29;82.70;;;16.55;;
53925;SDS011;39836;52.754;6.866;2023-03-03T04:51:55;97.68;;;15.98;;
53925;SDS011;39836;52.754;6.866;2023-03-03T04:54:21;75.80;;;16.52;;
53925;SDS011;39836;52.754;6.866;2023-03-03T04:56:47;89.93;;;17.05;;
53925;SDS011;39836;52.754;6.866;2023-03-03T04:59:13;84.00;;;16.83;;
53925;SDS011;39836;52.754;6.866;2023-03-03T05:01:39;55.85;;;16.83;;
53925;SDS011;39836;52.754;6.866;2023-03-03T05:04:05;75.38;;;15.68;;
53925;SDS011;39836;52.754;6.866;2023-03-03T05:06:31;88.18;;;17.58;;
53925;SDS011;39836;52.754;6.866;2023-03-03T05:08:57;83.47;;;16.80;;
53925;SDS011;39836;52.754;6.866;2023-03-03T05:11:23;80.03;;;16.15;;
53925;SDS011;39836;52.754;6.866;2023-03-03T05:13:48;67.93;;;16.05;;
53925;SDS011;39836;52.754;6.866;2023-03-03T05:16:14;88.88;;;18.23;;
53925;SDS011;39836;52.754;6.866;2023-03-03T05:18:40;71.03;;;17.48;;
53925;SDS011;39836;52.754;6.866;2023-03-03T05:21:06;65.07;;;15.25;;
53925;SDS011;39836;52.754;6.866;2023-03-03T05:23:31;70.85;;;16.35;;
53925;SDS011;39836;52.754;6.866;2023-03-03T05:25:57;81.10;;;17.95;;
53925;SDS011;39836;52.754;6.866;2023-03-03T05:28:23;56.45;;;16.45;;
53925;SDS011;39836;52.754;6.866;2023-03-03T05:30:48;77.50;;;17.98;;
53925;SDS011;39836;52.754;6.866;2023-03-03T05:33:15;111.43;;;18.65;;
53925;SDS011;39836;52.754;6.866;2023-03-03T05:35:41;64.78;;;18.55;;
53925;SDS011;39836;52.754;6.866;2023-03-03T05:38:07;75.15;;;19.05;;
53925;SDS011;39836;52.754;6.866;2023-03-03T05:40:33;65.47;;;16.48;;
53925;SDS011;39836;52.754;6.866;2023-03-03T05:42:59;70.07;;;19.17;;
53925;SDS011;39836;52.754;6.866;2023-03-03T05:45:24;72.50;;;18.27;;
53925;SDS011;39836;52.754;6.866;2023-03-03T05:47:50;99.07;;;20.23;;
53925;SDS011;39836;52.754;6.866;2023-03-03T05:50:16;82.18;;;18.77;;
53925;SDS011;39836;52.754;6.866;2023-03-03T05:52:43;112.70;;;22.05;;
53925;SDS011;39836;52.754;6.866;2023-03-03T05:55:09;90.10;;;19.58;;
53925;SDS011;39836;52.754;6.866;2023-03-03T05:57:35;105.47;;;19.92;;
53925;SDS011;39836;52.754;6.866;2023-03-03T06:00:01;86.60;;;20.65;;
53925;SDS011;39836;52.754;6.866;2023-03-03T06:02:31;149.35;;;22.63;;
53925;SDS011;39836;52.754;6.866;2023-03-03T06:04:56;69.30;;;19.48;;
53925;SDS011;39836;52.754;6.866;2023-03-03T06:07:22;92.63;;;20.77;;
53925;SDS011;39836;52.754;6.866;2023-03-03T06:09:48;100.93;;;21.33;;
53925;SDS011;39836;52.754;6.866;2023-03-03T06:12:13;91.28;;;20.35;;
53925;SDS011;39836;52.754;6.866;2023-03-03T06:14:39;69.32;;;20.67;;
53925;SDS011;39836;52.754;6.866;2023-03-03T06:17:04;93.50;;;20.35;;
53925;SDS011;39836;52.754;6.866;2023-03-03T06:19:30;93.93;;;20.27;;
53925;SDS011;39836;52.754;6.866;2023-03-03T06:21:56;79.00;;;21.38;;
53925;SDS011;39836;52.754;6.866;2023-03-03T06:24:21;80.97;;;20.25;;
53925;SDS011;39836;52.754;6.866;2023-03-03T06:26:49;76.13;;;21.02;;
53925;SDS011;39836;52.754;6.866;2023-03-03T06:29:16;99.80;;;22.25;;
53925;SDS011;39836;52.754;6.866;2023-03-03T06:31:42;88.20;;;20.20;;
53925;SDS011;39836;52.754;6.866;2023-03-03T06:34:08;83.88;;;20.23;;
53925;SDS011;39836;52.754;6.866;2023-03-03T06:36:34;81.60;;;19.55;;
53925;SDS011;39836;52.754;6.866;2023-03-03T06:39:00;86.10;;;19.83;;
53925;SDS011;39836;52.754;6.866;2023-03-03T06:41:25;99.95;;;22.60;;
53925;SDS011;39836;52.754;6.866;2023-03-03T06:43:51;104.05;;;20.10;;
53925;SDS011;39836;52.754;6.866;2023-03-03T06:46:17;94.93;;;20.30;;
53925;SDS011;39836;52.754;6.866;2023-03-03T06:48:43;67.10;;;20.08;;
53925;SDS011;39836;52.754;6.866;2023-03-03T06:51:15;64.75;;;20.27;;
53925;SDS011;39836;52.754;6.866;2023-03-03T06:53:47;68.53;;;25.52;;
53925;SDS011;39836;52.754;6.866;2023-03-03T06:56:15;53.13;;;20.48;;
53925;SDS011;39836;52.754;6.866;2023-03-03T06:58:42;49.50;;;20.02;;
53925;SDS011;39836;52.754;6.866;2023-03-03T07:01:17;43.40;;;19.25;;
53925;SDS011;39836;52.754;6.866;2023-03-03T07:03:42;42.13;;;18.35;;
53925;SDS011;39836;52.754;6.866;2023-03-03T07:06:21;44.70;;;19.02;;
53925;SDS011;39836;52.754;6.866;2023-03-03T07:08:49;46.75;;;18.73;;
53925;SDS011;39836;52.754;6.866;2023-03-03T07:11:17;41.13;;;18.13;;
53925;SDS011;39836;52.754;6.866;2023-03-03T07:13:53;54.33;;;19.75;;
53925;SDS011;39836;52.754;6.866;2023-03-03T07:16:26;44.72;;;19.25;;
53925;SDS011;39836;52.754;6.866;2023-03-03T07:18:58;45.63;;;19.77;;
53925;SDS011;39836;52.754;6.866;2023-03-03T07:21:35;35.92;;;17.20;;
53925;SDS011;39836;52.754;6.866;2023-03-03T07:24:20;42.83;;;17.98;;
53925;SDS011;39836;52.754;6.866;2023-03-03T07:26:46;38.00;;;18.27;;
53925;SDS011;39836;52.754;6.866;2023-03-03T07:29:25;39.67;;;17.33;;
53925;SDS011;39836;52.754;6.866;2023-03-03T07:31:56;41.60;;;17.77;;
53925;SDS011;39836;52.754;6.866;2023-03-03T07:36:56;43.15;;;18.60;;
53925;SDS011;39836;52.754;6.866;2023-03-03T07:44:46;39.78;;;16.83;;
53925;SDS011;39836;52.754;6.866;2023-03-03T07:47:20;31.20;;;15.52;;
53925;SDS011;39836;52.754;6.866;2023-03-03T07:49:50;31.63;;;16.40;;
53925;SDS011;39836;52.754;6.866;2023-03-03T07:54:50;33.28;;;15.88;;
53925;SDS011;39836;52.754;6.866;2023-03-03T07:57:24;37.35;;;16.98;;
53925;SDS011;39836;52.754;6.866;2023-03-03T08:02:39;30.45;;;15.80;;
53925;SDS011;39836;52.754;6.866;2023-03-03T08:05:34;32.40;;;16.30;;
53925;SDS011;39836;52.754;6.866;2023-03-03T08:13:22;39.05;;;16.98;;
53925;SDS011;39836;52.754;6.866;2023-03-03T08:15:49;37.65;;;16.42;;
53925;SDS011;39836;52.754;6.866;2023-03-03T08:21:14;36.08;;;16.55;;
53925;SDS011;39836;52.754;6.866;2023-03-03T08:23:47;36.28;;;16.52;;
53925;SDS011;39836;52.754;6.866;2023-03-03T08:26:15;36.00;;;15.25;;
53925;SDS011;39836;52.754;6.866;2023-03-03T08:28:46;32.90;;;16.00;;
53925;SDS011;39836;52.754;6.866;2023-03-03T08:31:12;33.78;;;16.13;;
53925;SDS011;39836;52.754;6.866;2023-03-03T08:33:38;38.63;;;17.33;;
53925;SDS011;39836;52.754;6.866;2023-03-03T08:36:04;37.58;;;16.58;;
53925;SDS011;39836;52.754;6.866;2023-03-03T08:38:31;32.45;;;16.00;;
53925;SDS011;39836;52.754;6.866;2023-03-03T08:40:56;28.38;;;15.38;;
53925;SDS011;39836;52.754;6.866;2023-03-03T08:43:22;36.25;;;15.07;;
53925;SDS011;39836;52.754;6.866;2023-03-03T08:45:49;34.38;;;17.15;;
53925;SDS011;39836;52.754;6.866;2023-03-03T08:48:17;36.00;;;16.17;;
53925;SDS011;39836;52.754;6.866;2023-03-03T08:50:43;41.40;;;16.70;;
53925;SDS011;39836;52.754;6.866;2023-03-03T08:53:11;31.42;;;15.73;;
53925;SDS011;39836;52.754;6.866;2023-03-03T08:55:37;33.00;;;15.55;;
53925;SDS011;39836;52.754;6.866;2023-03-03T08:58:04;34.42;;;16.88;;
53925;SDS011;39836;52.754;6.866;2023-03-03T09:00:30;35.17;;;16.65;;
53925;SDS011;39836;52.754;6.866;2023-03-03T09:02:56;29.30;;;15.93;;
53925;SDS011;39836;52.754;6.866;2023-03-03T09:05:21;34.50;;;16.50;;
53925;SDS011;39836;52.754;6.866;2023-03-03T09:07:48;31.20;;;15.73;;
53925;SDS011;39836;52.754;6.866;2023-03-03T09:10:17;28.67;;;15.95;;
53925;SDS011;39836;52.754;6.866;2023-03-03T09:12:50;31.98;;;16.10;;
53925;SDS011;39836;52.754;6.866;2023-03-03T09:17:59;35.38;;;16.25;;
53925;SDS011;39836;52.754;6.866;2023-03-03T09:25:48;28.30;;;14.73;;
53925;SDS011;39836;52.754;6.866;2023-03-03T09:28:22;31.08;;;15.07;;
53925;SDS011;39836;52.754;6.866;2023-03-03T09:30:50;30.38;;;16.00;;
53925;SDS011;39836;52.754;6.866;2023-03-03T09:35:52;33.03;;;16.23;;
53925;SDS011;39836;52.754;6.866;2023-03-03T09:38:26;31.25;;;16.08;;
53925;SDS011;39836;52.754;6.866;2023-03-03T09:49:33;25.45;;;13.35;;
53925;SDS011;39836;52.754;6.866;2023-03-03T09:54:55;25.23;;;13.90;;
53925;SDS011;39836;52.754;6.866;2023-03-03T10:05:33;20.70;;;12.02;;
53925;SDS011;39836;52.754;6.866;2023-03-03T10:33:00;14.88;;;7.78;;
53925;SDS011;39836;52.754;6.866;2023-03-03T10:41:52;19.20;;;9.35;;
53925;SDS011;39836;52.754;6.866;2023-03-03T10:44:37;17.17;;;8.52;;
53925;SDS011;39836;52.754;6.866;2023-03-03T10:47:29;19.40;;;8.50;;
53925;SDS011;39836;52.754;6.866;2023-03-03T11:01:18;17.95;;;9.90;;
53925;SDS011;39836;52.754;6.866;2023-03-03T11:06:57;17.05;;;8.93;;
53925;SDS011;39836;52.754;6.866;2023-03-03T11:20:49;20.70;;;9.50;;
53925;SDS011;39836;52.754;6.866;2023-03-03T11:37:35;15.38;;;9.00;;
53925;SDS011;39836;52.754;6.866;2023-03-03T11:40:19;16.27;;;9.38;;
53925;SDS011;39836;52.754;6.866;2023-03-03T11:48:15;17.58;;;8.10;;
53925;SDS011;39836;52.754;6.866;2023-03-03T11:53:36;14.65;;;7.60;;
53925;SDS011;39836;52.754;6.866;2023-03-03T12:04:00;13.88;;;6.95;;
53925;SDS011;39836;52.754;6.866;2023-03-03T12:12:14;14.40;;;8.20;;
53925;SDS011;39836;52.754;6.866;2023-03-03T12:23:29;13.98;;;7.35;;
53925;SDS011;39836;52.754;6.866;2023-03-03T12:26:31;10.48;;;6.93;;
53925;SDS011;39836;52.754;6.866;2023-03-03T12:32:28;12.40;;;6.72;;
53925;SDS011;39836;52.754;6.866;2023-03-03T12:35:08;10.65;;;5.78;;
53925;SDS011;39836;52.754;6.866;2023-03-03T12:40:33;10.82;;;5.53;;
53925;SDS011;39836;52.754;6.866;2023-03-03T12:46:17;14.00;;;5.40;;
53925;SDS011;39836;52.754;6.866;2023-03-03T12:48:52;13.70;;;6.00;;
53925;SDS011;39836;52.754;6.866;2023-03-03T12:51:36;9.55;;;4.45;;
53925;SDS011;39836;52.754;6.866;2023-03-03T12:54:23;9.80;;;4.60;;
53925;SDS011;39836;52.754;6.866;2023-03-03T13:05:18;5.07;;;2.60;;
53925;SDS011;39836;52.754;6.866;2023-03-03T13:08:02;7.68;;;2.83;;
53925;SDS011;39836;52.754;6.866;2023-03-03T13:13:51;8.02;;;2.78;;
53925;SDS011;39836;52.754;6.866;2023-03-03T13:16:33;5.25;;;2.92;;
53925;SDS011;39836;52.754;6.866;2023-03-03T13:27:22;9.88;;;2.13;;
53925;SDS011;39836;52.754;6.866;2023-03-03T13:30:02;6.65;;;2.38;;
53925;SDS011;39836;52.754;6.866;2023-03-03T13:38:05;6.70;;;3.00;;
53925;SDS011;39836;52.754;6.866;2023-03-03T13:43:38;6.40;;;2.80;;
53925;SDS011;39836;52.754;6.866;2023-03-03T13:46:28;4.15;;;2.55;;
53925;SDS011;39836;52.754;6.866;2023-03-03T13:49:06;5.03;;;2.67;;
53925;SDS011;39836;52.754;6.866;2023-03-03T13:52:01;8.00;;;2.90;;
53925;SDS011;39836;52.754;6.866;2023-03-03T13:54:43;6.32;;;2.55;;
53925;SDS011;39836;52.754;6.866;2023-03-03T13:57:36;5.88;;;2.70;;
53925;SDS011;39836;52.754;6.866;2023-03-03T14:05:37;7.00;;;2.78;;
53925;SDS011;39836;52.754;6.866;2023-03-03T14:11:09;6.18;;;2.70;;
53925;SDS011;39836;52.754;6.866;2023-03-03T14:16:49;7.13;;;2.65;;
53925;SDS011;39836;52.754;6.866;2023-03-03T14:22:23;6.38;;;2.78;;
53925;SDS011;39836;52.754;6.866;2023-03-03T14:25:10;5.00;;;2.72;;
53925;SDS011;39836;52.754;6.866;2023-03-03T14:30:29;7.10;;;2.42;;
53925;SDS011;39836;52.754;6.866;2023-03-03T14:35:36;6.43;;;2.40;;
53925;SDS011;39836;52.754;6.866;2023-03-03T14:40:42;4.68;;;2.58;;
53925;SDS011;39836;52.754;6.866;2023-03-03T14:43:21;5.32;;;2.05;;
53925;SDS011;39836;52.754;6.866;2023-03-03T14:46:28;5.35;;;2.28;;
53925;SDS011;39836;52.754;6.866;2023-03-03T14:49:04;3.28;;;2.20;;
53925;SDS011;39836;52.754;6.866;2023-03-03T14:51:39;5.28;;;2.40;;
53925;SDS011;39836;52.754;6.866;2023-03-03T14:54:12;3.47;;;2.00;;
53925;SDS011;39836;52.754;6.866;2023-03-03T14:57:01;4.60;;;1.95;;
53925;SDS011;39836;52.754;6.866;2023-03-03T14:59:35;8.00;;;2.22;;
53925;SDS011;39836;52.754;6.866;2023-03-03T15:04:43;6.13;;;2.15;;
53925;SDS011;39836;52.754;6.866;2023-03-03T15:09:59;6.65;;;2.25;;
53925;SDS011;39836;52.754;6.866;2023-03-03T15:12:26;8.07;;;2.40;;
53925;SDS011;39836;52.754;6.866;2023-03-03T15:25:38;5.15;;;2.15;;
53925;SDS011;39836;52.754;6.866;2023-03-03T15:28:19;7.55;;;2.55;;
53925;SDS011;39836;52.754;6.866;2023-03-03T15:31:07;5.45;;;2.28;;
53925;SDS011;39836;52.754;6.866;2023-03-03T15:36:51;6.18;;;2.40;;
53925;SDS011;39836;52.754;6.866;2023-03-03T15:41:46;4.57;;;2.00;;
53925;SDS011;39836;52.754;6.866;2023-03-03T15:44:21;3.97;;;2.20;;
53925;SDS011;39836;52.754;6.866;2023-03-03T15:47:00;8.10;;;2.38;;
53925;SDS011;39836;52.754;6.866;2023-03-03T15:49:34;9.05;;;2.60;;
53925;SDS011;39836;52.754;6.866;2023-03-03T15:55:01;7.75;;;2.38;;
53925;SDS011;39836;52.754;6.866;2023-03-03T15:57:43;7.38;;;2.55;;
53925;SDS011;39836;52.754;6.866;2023-03-03T16:00:33;7.43;;;2.50;;
53925;SDS011;39836;52.754;6.866;2023-03-03T16:03:26;11.13;;;2.40;;
53925;SDS011;39836;52.754;6.866;2023-03-03T16:06:47;7.75;;;2.35;;
53925;SDS011;39836;52.754;6.866;2023-03-03T16:09:15;9.18;;;2.15;;
53925;SDS011;39836;52.754;6.866;2023-03-03T16:29:00;11.18;;;3.10;;
53925;SDS011;39836;52.754;6.866;2023-03-03T16:31:31;11.93;;;3.28;;
53925;SDS011;39836;52.754;6.866;2023-03-03T16:36:50;14.90;;;3.00;;
53925;SDS011;39836;52.754;6.866;2023-03-03T16:39:39;15.50;;;4.15;;
53925;SDS011;39836;52.754;6.866;2023-03-03T16:42:33;16.67;;;3.22;;
53925;SDS011;39836;52.754;6.866;2023-03-03T16:53:42;19.27;;;8.10;;
53925;SDS011;39836;52.754;6.866;2023-03-03T16:56:18;19.48;;;4.55;;
53925;SDS011;39836;52.754;6.866;2023-03-03T17:02:05;18.50;;;4.15;;
53925;SDS011;39836;52.754;6.866;2023-03-03T17:07:43;26.83;;;11.50;;
53925;SDS011;39836;52.754;6.866;2023-03-03T17:16:16;18.90;;;4.93;;
53925;SDS011;39836;52.754;6.866;2023-03-03T17:19:05;29.63;;;6.40;;
53925;SDS011;39836;52.754;6.866;2023-03-03T17:30:25;14.15;;;4.57;;
53925;SDS011;39836;52.754;6.866;2023-03-03T17:40:44;21.42;;;5.70;;
53925;SDS011;39836;52.754;6.866;2023-03-03T17:43:22;20.23;;;6.72;;
53925;SDS011;39836;52.754;6.866;2023-03-03T17:46:02;24.70;;;5.53;;
53925;SDS011;39836;52.754;6.866;2023-03-03T18:13:52;28.50;;;8.32;;
53925;SDS011;39836;52.754;6.866;2023-03-03T18:22:11;22.92;;;6.95;;
53925;SDS011;39836;52.754;6.866;2023-03-03T18:38:17;23.77;;;5.75;;
53925;SDS011;39836;52.754;6.866;2023-03-03T18:40:51;27.98;;;7.72;;
53925;SDS011;39836;52.754;6.866;2023-03-03T18:53:59;35.83;;;8.82;;
53925;SDS011;39836;52.754;6.866;2023-03-03T18:56:42;31.05;;;6.90;;
53925;SDS011;39836;52.754;6.866;2023-03-03T19:04:43;29.55;;;5.70;;
53925;SDS011;39836;52.754;6.866;2023-03-03T19:09:48;21.25;;;3.78;;
53925;SDS011;39836;52.754;6.866;2023-03-03T19:12:40;22.08;;;4.97;;
53925;SDS011;39836;52.754;6.866;2023-03-03T19:15:10;24.90;;;4.63;;
53925;SDS011;39836;52.754;6.866;2023-03-03T19:20:53;29.67;;;5.82;;
53925;SDS011;39836;52.754;6.866;2023-03-03T19:23:45;24.92;;;4.35;;
53925;SDS011;39836;52.754;6.866;2023-03-03T19:28:46;27.70;;;5.03;;
53925;SDS011;39836;52.754;6.866;2023-03-03T19:31:20;23.50;;;4.45;;
53925;SDS011;39836;52.754;6.866;2023-03-03T19:33:58;25.63;;;4.75;;
53925;SDS011;39836;52.754;6.866;2023-03-03T19:37:04;25.10;;;5.28;;
53925;SDS011;39836;52.754;6.866;2023-03-03T19:39:45;28.77;;;4.72;;
53925;SDS011;39836;52.754;6.866;2023-03-03T19:42:32;21.63;;;5.28;;
53925;SDS011;39836;52.754;6.866;2023-03-03T19:48:01;36.97;;;5.47;;
53925;SDS011;39836;52.754;6.866;2023-03-03T19:50:45;28.85;;;5.07;;
53925;SDS011;39836;52.754;6.866;2023-03-03T19:58:39;32.65;;;5.20;;
53925;SDS011;39836;52.754;6.866;2023-03-03T20:14:43;34.35;;;5.15;;
53925;SDS011;39836;52.754;6.866;2023-03-03T20:20:11;21.77;;;4.75;;
53925;SDS011;39836;52.754;6.866;2023-03-03T20:25:34;39.92;;;5.35;;
53925;SDS011;39836;52.754;6.866;2023-03-03T20:36:44;28.50;;;4.50;;
53925;SDS011;39836;52.754;6.866;2023-03-03T20:42:19;22.20;;;4.75;;
53925;SDS011;39836;52.754;6.866;2023-03-03T20:45:14;25.65;;;5.13;;
53925;SDS011;39836;52.754;6.866;2023-03-03T21:04:36;16.52;;;3.58;;
53925;SDS011;39836;52.754;6.866;2023-03-03T21:07:03;26.30;;;4.85;;
53925;SDS011;39836;52.754;6.866;2023-03-03T21:09:33;22.17;;;4.53;;
53925;SDS011;39836;52.754;6.866;2023-03-03T21:14:59;15.35;;;4.03;;
53925;SDS011;39836;52.754;6.866;2023-03-03T21:17:27;24.55;;;4.53;;
53925;SDS011;39836;52.754;6.866;2023-03-03T21:19:55;16.88;;;4.40;;
53925;SDS011;39836;52.754;6.866;2023-03-03T21:22:43;20.67;;;4.05;;
53925;SDS011;39836;52.754;6.866;2023-03-03T21:25:11;20.73;;;4.25;;
53925;SDS011;39836;52.754;6.866;2023-03-03T21:36:16;29.08;;;5.53;;
53925;SDS011;39836;52.754;6.866;2023-03-03T21:38:42;19.52;;;4.38;;
53925;SDS011;39836;52.754;6.866;2023-03-03T21:41:10;26.08;;;4.55;;
53925;SDS011;39836;52.754;6.866;2023-03-03T21:43:40;26.23;;;5.60;;
53925;SDS011;39836;52.754;6.866;2023-03-03T21:46:08;29.52;;;5.05;;
53925;SDS011;39836;52.754;6.866;2023-03-03T21:48:34;23.80;;;4.85;;
53925;SDS011;39836;52.754;6.866;2023-03-03T21:51:04;20.45;;;4.22;;
53925;SDS011;39836;52.754;6.866;2023-03-03T21:53:29;20.88;;;5.15;;
53925;SDS011;39836;52.754;6.866;2023-03-03T21:55:55;36.40;;;5.57;;
53925;SDS011;39836;52.754;6.866;2023-03-03T21:58:21;27.33;;;4.45;;
53925;SDS011;39836;52.754;6.866;2023-03-03T22:00:47;34.90;;;5.03;;
53925;SDS011;39836;52.754;6.866;2023-03-03T22:03:13;21.08;;;4.95;;
53925;SDS011;39836;52.754;6.866;2023-03-03T22:05:44;20.35;;;3.67;;
53925;SDS011;39836;52.754;6.866;2023-03-03T22:08:11;19.73;;;3.60;;
53925;SDS011;39836;52.754;6.866;2023-03-03T22:10:37;19.75;;;4.93;;
53925;SDS011;39836;52.754;6.866;2023-03-03T22:13:03;23.98;;;4.00;;
53925;SDS011;39836;52.754;6.866;2023-03-03T22:15:29;27.33;;;4.95;;
53925;SDS011;39836;52.754;6.866;2023-03-03T22:17:57;25.00;;;4.60;;
53925;SDS011;39836;52.754;6.866;2023-03-03T22:20:23;27.27;;;4.63;;
53925;SDS011;39836;52.754;6.866;2023-03-03T22:22:49;19.58;;;4.88;;
53925;SDS011;39836;52.754;6.866;2023-03-03T22:25:15;21.77;;;4.90;;